Vera, Texas
Current Conditions -  °F | °C
As of 4:35 PM on Monday 22 Dec 2014 (Local Time) from KF05 Reporting Station
Scattered Clouds Scattered Clouds  
Wind Chill: 58°   Ceiling: Unl
Heat Index: 58°   Visibility: 10mi
Dew Point: 30°   Wind: 7mph
Humidity: 34%   Direction: 330°NNW
Pressure: 29.65"   Gusts: NA
Location:  33.6337°N, 99.8039°W
Report Text: KF05 222235Z AUTO 33006KT 10SM SCT110 14/M01 A2965 RMK AO1 T01441012
Loading
Personal Weather Stations






























Interactive Weather Map New forecast layout! Learn more

10-Day Weather Forecast

Advertisements
Track Severe Weather on mobile